createdAt,value
2022-11-14T06:03:05.081Z,11.10
2022-11-14T06:08:28.768Z,11.30
2022-11-14T06:13:50.724Z,11.30
2022-11-14T06:19:13.899Z,11.40
2022-11-14T06:24:36.223Z,11.50
2022-11-14T06:29:58.036Z,11.60
2022-11-14T06:35:21.407Z,11.70
2022-11-14T06:40:43.117Z,11.70
2022-11-14T06:46:05.707Z,11.80
2022-11-14T06:51:28.773Z,11.80
2022-11-14T06:56:50.683Z,11.80
2022-11-14T07:02:17.748Z,11.90
2022-11-14T07:07:45.162Z,12.00
2022-11-14T07:13:06.938Z,12.00
2022-11-14T07:18:31.019Z,12.00
2022-11-14T07:23:54.505Z,12.10
2022-11-14T07:29:16.422Z,12.10
2022-11-14T07:34:37.958Z,12.20
2022-11-14T07:40:01.190Z,12.30
2022-11-14T07:45:23.189Z,12.30
2022-11-14T07:50:47.224Z,12.30
2022-11-14T07:56:11.089Z,12.40
2022-11-14T08:01:32.744Z,12.60
2022-11-14T08:06:54.357Z,12.60
2022-11-14T08:12:18.027Z,12.70
2022-11-14T08:17:40.766Z,12.80
2022-11-14T08:23:07.150Z,12.90
2022-11-14T08:28:30.992Z,12.90
2022-11-14T08:33:53.759Z,13.10
2022-11-14T08:39:15.775Z,13.20
2022-11-14T08:44:38.921Z,13.30
2022-11-14T08:50:00.827Z,13.40
2022-11-14T08:55:22.429Z,13.40
2022-11-14T09:00:45.624Z,13.50
2022-11-14T09:06:07.675Z,13.60
2022-11-14T09:11:29.774Z,13.80
2022-11-14T09:16:52.904Z,13.90
2022-11-14T09:22:14.752Z,14.20
2022-11-14T09:27:36.423Z,14.40
2022-11-14T09:33:05.755Z,14.50
2022-11-14T09:38:37.013Z,14.70
2022-11-14T09:44:27.040Z,14.80
2022-11-14T09:49:53.057Z,15.00
2022-11-14T09:55:18.592Z,15.10
2022-11-14T10:00:50.049Z,15.20
2022-11-14T10:06:24.411Z,15.20
2022-11-14T10:11:52.695Z,15.30
2022-11-14T10:17:28.210Z,15.30
2022-11-14T10:23:04.878Z,15.40
2022-11-14T10:28:39.748Z,15.30
2022-11-14T10:34:07.274Z,15.40
2022-11-14T10:39:36.329Z,15.60
2022-11-14T10:45:03.394Z,15.90
2022-11-14T10:50:29.825Z,16.20
2022-11-14T10:56:04.403Z,16.30
2022-11-14T11:01:37.534Z,16.20
2022-11-14T11:07:34.108Z,16.10
2022-11-14T11:12:57.691Z,16.00
2022-11-14T11:18:28.530Z,16.00
2022-11-14T11:23:52.389Z,16.10
2022-11-14T11:29:20.873Z,16.30
2022-11-14T11:34:42.740Z,16.50
2022-11-14T11:40:07.365Z,16.50
2022-11-14T11:45:31.525Z,16.60
2022-11-14T11:50:53.532Z,16.60
2022-11-14T11:56:18.851Z,16.50
2022-11-14T12:01:42.130Z,16.70
2022-11-14T12:07:09.160Z,17.20
2022-11-14T12:12:50.331Z,17.20
2022-11-14T12:18:54.034Z,17.00
2022-11-14T12:24:52.650Z,16.80
2022-11-14T12:30:18.707Z,16.70
2022-11-14T12:35:51.116Z,16.70
2022-11-14T12:41:14.010Z,17.20
2022-11-14T12:47:16.248Z,17.30
2022-11-14T12:52:49.481Z,17.10
2022-11-14T12:58:12.849Z,16.80
2022-11-14T13:03:49.041Z,16.60
2022-11-14T13:09:36.768Z,16.30
2022-11-14T13:15:15.938Z,16.10
2022-11-14T13:20:55.399Z,16.20
2022-11-14T13:26:41.131Z,16.20
2022-11-14T13:32:02.572Z,16.50
2022-11-14T13:37:42.131Z,16.50
2022-11-14T13:43:15.459Z,16.70
2022-11-14T13:49:05.138Z,17.40
2022-11-14T13:54:28.954Z,17.90
2022-11-14T14:00:18.385Z,17.80
2022-11-14T14:06:05.935Z,17.50
2022-11-14T14:11:44.842Z,17.30
2022-11-14T14:17:14.856Z,17.60
2022-11-14T14:22:43.457Z,18.00
2022-11-14T14:28:16.078Z,18.50
2022-11-14T14:33:43.782Z,18.60
2022-11-14T14:39:18.307Z,18.70
2022-11-14T14:44:41.206Z,18.60
2022-11-14T14:50:07.600Z,18.50
2022-11-14T14:55:32.385Z,18.60
2022-11-14T15:00:56.583Z,18.60
2022-11-14T15:06:30.007Z,18.70
2022-11-14T15:11:54.845Z,18.30
2022-11-14T15:17:17.607Z,17.90
2022-11-14T15:22:41.427Z,17.60
2022-11-14T15:28:03.338Z,17.40
2022-11-14T15:33:30.328Z,16.70
2022-11-14T15:39:06.317Z,16.90
2022-11-14T15:44:32.038Z,16.70
2022-11-14T15:49:59.437Z,16.50
2022-11-14T15:55:24.539Z,16.30
2022-11-14T16:00:48.957Z,16.30
2022-11-14T16:06:12.168Z,16.20
2022-11-14T16:11:35.138Z,16.10
2022-11-14T16:16:57.032Z,15.90
2022-11-14T16:22:19.267Z,15.70
2022-11-14T16:27:42.350Z,15.50
2022-11-14T16:33:04.408Z,15.40
2022-11-14T16:38:26.483Z,15.20
2022-11-14T16:43:49.649Z,15.00
2022-11-14T16:49:14.900Z,14.70
2022-11-14T16:54:36.811Z,14.50
2022-11-14T17:00:00.123Z,14.30
2022-11-14T17:05:22.063Z,14.20
2022-11-14T17:10:44.663Z,14.00
2022-11-14T17:16:08.939Z,13.90
2022-11-14T17:21:30.664Z,13.80
2022-11-14T17:26:52.341Z,13.70
2022-11-14T17:32:15.647Z,13.70
2022-11-14T17:37:37.623Z,13.60
2022-11-14T17:42:59.239Z,13.50
2022-11-14T17:48:22.129Z,13.30
2022-11-14T17:53:44.548Z,13.20
2022-11-14T17:59:06.261Z,13.10
2022-11-14T18:04:31.133Z,13.10
2022-11-14T18:09:52.708Z,13.20
2022-11-14T18:15:15.151Z,13.20
2022-11-14T18:20:40.188Z,13.10
2022-11-14T18:26:02.083Z,13.00
2022-11-14T18:31:24.272Z,13.00
2022-11-14T18:36:47.514Z,12.90
2022-11-14T18:42:09.508Z,12.80
2022-11-14T18:47:31.345Z,12.90
2022-11-14T18:52:54.699Z,12.90
2022-11-14T18:58:16.593Z,12.90
2022-11-14T19:03:38.575Z,12.80
2022-11-14T19:09:10.626Z,12.70
2022-11-14T19:14:32.940Z,12.60
2022-11-14T19:19:54.872Z,12.60
2022-11-14T19:25:18.002Z,12.70
2022-11-14T19:30:40.001Z,12.70
2022-11-14T19:36:07.415Z,12.70
2022-11-14T19:41:32.397Z,12.80
2022-11-14T19:46:54.395Z,12.90
2022-11-14T19:52:18.058Z,12.90
2022-11-14T19:57:41.833Z,12.90
2022-11-14T20:03:03.606Z,12.90
2022-11-14T20:08:25.507Z,13.00
2022-11-14T20:13:48.803Z,13.10
2022-11-14T20:19:10.595Z,13.20
2022-11-14T20:24:32.588Z,13.30
2022-11-14T20:29:55.677Z,13.30
2022-11-14T20:35:17.636Z,13.30
2022-11-14T20:40:39.662Z,13.20
2022-11-14T20:46:04.243Z,13.10
2022-11-14T20:51:27.489Z,13.00
2022-11-14T20:56:49.529Z,12.90
2022-11-14T21:02:14.622Z,13.00
2022-11-14T21:07:36.364Z,12.90
2022-11-14T21:13:16.097Z,12.90
2022-11-14T21:18:42.784Z,12.90
2022-11-14T21:24:09.115Z,12.80
2022-11-14T21:29:30.972Z,12.90
2022-11-14T21:34:54.264Z,12.90
2022-11-14T21:40:16.280Z,12.90
2022-11-14T21:45:38.287Z,13.00
2022-11-14T21:51:09.519Z,12.10
2022-11-14T21:56:32.675Z,13.20
2022-11-14T22:02:11.956Z,13.20
2022-11-14T22:07:35.768Z,13.20
2022-11-14T22:12:58.442Z,13.20
2022-11-14T22:18:20.365Z,13.30
2022-11-14T22:23:44.157Z,13.30
2022-11-14T22:29:06.006Z,13.20
2022-11-14T22:34:27.887Z,13.20
2022-11-14T22:39:50.822Z,13.20
2022-11-14T22:45:12.620Z,13.20
2022-11-14T22:50:34.323Z,13.10
2022-11-14T22:55:57.354Z,13.10
2022-11-14T23:01:21.031Z,13.10
2022-11-14T23:06:42.894Z,13.10
2022-11-14T23:12:06.587Z,13.10
2022-11-14T23:17:28.714Z,13.20
2022-11-14T23:22:50.610Z,13.20
2022-11-14T23:28:13.691Z,13.20
